sensor_id;sensor_type;location;lat;lon;timestamp;P1;durP1;ratioP1;P2;durP2;ratioP2
13147;SDS011;6639;50.956;4.242;2022-08-19T00:00:50;27.40;;;24.83;;
13147;SDS011;6639;50.956;4.242;2022-08-19T00:03:17;27.85;;;25.48;;
13147;SDS011;6639;50.956;4.242;2022-08-19T00:05:44;26.92;;;24.52;;
13147;SDS011;6639;50.956;4.242;2022-08-19T00:08:10;29.20;;;26.70;;
13147;SDS011;6639;50.956;4.242;2022-08-19T00:10:39;29.02;;;26.52;;
13147;SDS011;6639;50.956;4.242;2022-08-19T00:13:06;29.85;;;26.95;;
13147;SDS011;6639;50.956;4.242;2022-08-19T00:15:32;32.17;;;29.05;;
13147;SDS011;6639;50.956;4.242;2022-08-19T00:17:59;31.23;;;28.25;;
13147;SDS011;6639;50.956;4.242;2022-08-19T00:20:26;33.83;;;30.40;;
13147;SDS011;6639;50.956;4.242;2022-08-19T00:22:53;34.53;;;31.13;;
13147;SDS011;6639;50.956;4.242;2022-08-19T00:25:20;32.78;;;29.67;;
13147;SDS011;6639;50.956;4.242;2022-08-19T00:27:49;32.63;;;29.45;;
13147;SDS011;6639;50.956;4.242;2022-08-19T00:30:16;33.70;;;30.50;;
13147;SDS011;6639;50.956;4.242;2022-08-19T00:32:43;32.85;;;29.70;;
13147;SDS011;6639;50.956;4.242;2022-08-19T00:35:10;35.00;;;31.50;;
13147;SDS011;6639;50.956;4.242;2022-08-19T00:37:37;36.20;;;32.50;;
13147;SDS011;6639;50.956;4.242;2022-08-19T00:40:08;36.00;;;32.60;;
13147;SDS011;6639;50.956;4.242;2022-08-19T00:42:36;37.35;;;33.67;;
13147;SDS011;6639;50.956;4.242;2022-08-19T00:45:08;38.78;;;34.88;;
13147;SDS011;6639;50.956;4.242;2022-08-19T00:47:38;39.83;;;35.67;;
13147;SDS011;6639;50.956;4.242;2022-08-19T00:50:05;40.08;;;35.78;;
13147;SDS011;6639;50.956;4.242;2022-08-19T00:52:36;41.03;;;36.92;;
13147;SDS011;6639;50.956;4.242;2022-08-19T00:55:07;42.45;;;38.10;;
13147;SDS011;6639;50.956;4.242;2022-08-19T00:57:37;41.58;;;37.45;;
13147;SDS011;6639;50.956;4.242;2022-08-19T01:00:14;39.90;;;35.20;;
13147;SDS011;6639;50.956;4.242;2022-08-19T01:02:43;41.65;;;37.40;;
13147;SDS011;6639;50.956;4.242;2022-08-19T01:05:13;39.28;;;35.33;;
13147;SDS011;6639;50.956;4.242;2022-08-19T01:07:43;40.05;;;36.05;;
13147;SDS011;6639;50.956;4.242;2022-08-19T01:10:11;41.38;;;37.10;;
13147;SDS011;6639;50.956;4.242;2022-08-19T01:12:41;45.63;;;40.83;;
13147;SDS011;6639;50.956;4.242;2022-08-19T01:15:09;44.78;;;39.97;;
13147;SDS011;6639;50.956;4.242;2022-08-19T01:17:40;43.40;;;38.95;;
13147;SDS011;6639;50.956;4.242;2022-08-19T01:20:09;45.88;;;41.28;;
13147;SDS011;6639;50.956;4.242;2022-08-19T01:22:43;45.25;;;40.55;;
13147;SDS011;6639;50.956;4.242;2022-08-19T01:25:12;45.65;;;40.72;;
13147;SDS011;6639;50.956;4.242;2022-08-19T01:27:40;47.83;;;42.42;;
13147;SDS011;6639;50.956;4.242;2022-08-19T01:30:08;48.95;;;43.65;;
13147;SDS011;6639;50.956;4.242;2022-08-19T01:32:37;45.67;;;41.03;;
13147;SDS011;6639;50.956;4.242;2022-08-19T01:35:05;47.10;;;42.40;;
13147;SDS011;6639;50.956;4.242;2022-08-19T01:37:42;44.00;;;39.40;;
13147;SDS011;6639;50.956;4.242;2022-08-19T01:40:11;44.45;;;39.65;;
13147;SDS011;6639;50.956;4.242;2022-08-19T01:42:38;46.00;;;41.03;;
13147;SDS011;6639;50.956;4.242;2022-08-19T01:45:06;44.67;;;39.97;;
13147;SDS011;6639;50.956;4.242;2022-08-19T01:47:34;45.22;;;40.22;;
13147;SDS011;6639;50.956;4.242;2022-08-19T01:50:01;43.00;;;38.55;;
13147;SDS011;6639;50.956;4.242;2022-08-19T01:52:29;43.55;;;38.97;;
13147;SDS011;6639;50.956;4.242;2022-08-19T01:54:57;43.45;;;39.13;;
13147;SDS011;6639;50.956;4.242;2022-08-19T01:57:24;41.47;;;37.28;;
13147;SDS011;6639;50.956;4.242;2022-08-19T01:59:51;42.40;;;38.00;;
13147;SDS011;6639;50.956;4.242;2022-08-19T02:02:18;42.08;;;37.67;;
13147;SDS011;6639;50.956;4.242;2022-08-19T02:04:45;41.80;;;37.30;;
13147;SDS011;6639;50.956;4.242;2022-08-19T02:07:13;42.03;;;37.72;;
13147;SDS011;6639;50.956;4.242;2022-08-19T02:09:39;39.55;;;35.58;;
13147;SDS011;6639;50.956;4.242;2022-08-19T02:12:08;40.80;;;36.70;;
13147;SDS011;6639;50.956;4.242;2022-08-19T02:14:35;38.60;;;34.30;;
13147;SDS011;6639;50.956;4.242;2022-08-19T02:17:02;38.13;;;34.33;;
13147;SDS011;6639;50.956;4.242;2022-08-19T02:19:29;33.55;;;30.00;;
13147;SDS011;6639;50.956;4.242;2022-08-19T02:21:58;33.88;;;30.48;;
13147;SDS011;6639;50.956;4.242;2022-08-19T02:24:25;34.92;;;31.42;;
13147;SDS011;6639;50.956;4.242;2022-08-19T02:26:52;32.42;;;29.25;;
13147;SDS011;6639;50.956;4.242;2022-08-19T02:29:20;33.83;;;30.33;;
13147;SDS011;6639;50.956;4.242;2022-08-19T02:31:47;32.03;;;28.80;;
13147;SDS011;6639;50.956;4.242;2022-08-19T02:34:14;33.50;;;30.13;;
13147;SDS011;6639;50.956;4.242;2022-08-19T02:36:41;31.88;;;28.77;;
13147;SDS011;6639;50.956;4.242;2022-08-19T02:39:08;32.10;;;28.92;;
13147;SDS011;6639;50.956;4.242;2022-08-19T02:41:34;30.92;;;27.70;;
13147;SDS011;6639;50.956;4.242;2022-08-19T02:44:02;31.90;;;28.80;;
13147;SDS011;6639;50.956;4.242;2022-08-19T02:46:32;30.73;;;27.25;;
13147;SDS011;6639;50.956;4.242;2022-08-19T02:49:00;29.13;;;26.35;;
13147;SDS011;6639;50.956;4.242;2022-08-19T02:51:30;30.92;;;27.95;;
13147;SDS011;6639;50.956;4.242;2022-08-19T02:54:02;29.67;;;26.55;;
13147;SDS011;6639;50.956;4.242;2022-08-19T02:56:30;29.30;;;26.30;;
13147;SDS011;6639;50.956;4.242;2022-08-19T02:58:57;28.52;;;25.65;;
13147;SDS011;6639;50.956;4.242;2022-08-19T03:01:25;27.83;;;25.02;;
13147;SDS011;6639;50.956;4.242;2022-08-19T03:03:55;27.75;;;25.00;;
13147;SDS011;6639;50.956;4.242;2022-08-19T03:06:23;26.50;;;23.70;;
13147;SDS011;6639;50.956;4.242;2022-08-19T03:08:50;26.60;;;23.92;;
13147;SDS011;6639;50.956;4.242;2022-08-19T03:11:19;27.70;;;24.75;;
13147;SDS011;6639;50.956;4.242;2022-08-19T03:13:47;26.02;;;23.42;;
13147;SDS011;6639;50.956;4.242;2022-08-19T03:16:16;26.83;;;24.05;;
13147;SDS011;6639;50.956;4.242;2022-08-19T03:18:44;27.50;;;24.48;;
13147;SDS011;6639;50.956;4.242;2022-08-19T03:21:15;27.50;;;24.58;;
13147;SDS011;6639;50.956;4.242;2022-08-19T03:23:43;27.23;;;24.48;;
13147;SDS011;6639;50.956;4.242;2022-08-19T03:26:10;25.20;;;22.58;;
13147;SDS011;6639;50.956;4.242;2022-08-19T03:28:37;26.80;;;24.15;;
13147;SDS011;6639;50.956;4.242;2022-08-19T03:31:05;25.50;;;22.80;;
13147;SDS011;6639;50.956;4.242;2022-08-19T03:33:34;25.85;;;23.35;;
13147;SDS011;6639;50.956;4.242;2022-08-19T03:36:03;25.13;;;22.50;;
13147;SDS011;6639;50.956;4.242;2022-08-19T03:38:34;25.05;;;22.50;;
13147;SDS011;6639;50.956;4.242;2022-08-19T03:41:03;25.63;;;23.13;;
13147;SDS011;6639;50.956;4.242;2022-08-19T03:43:33;24.75;;;22.38;;
13147;SDS011;6639;50.956;4.242;2022-08-19T03:46:01;23.85;;;21.27;;
13147;SDS011;6639;50.956;4.242;2022-08-19T03:48:29;23.35;;;20.75;;
13147;SDS011;6639;50.956;4.242;2022-08-19T03:50:57;23.60;;;21.02;;
13147;SDS011;6639;50.956;4.242;2022-08-19T03:53:24;23.27;;;20.77;;
13147;SDS011;6639;50.956;4.242;2022-08-19T03:55:53;22.73;;;20.15;;
13147;SDS011;6639;50.956;4.242;2022-08-19T03:58:21;22.60;;;19.70;;
13147;SDS011;6639;50.956;4.242;2022-08-19T04:00:48;22.48;;;20.10;;
13147;SDS011;6639;50.956;4.242;2022-08-19T04:03:15;22.40;;;19.88;;
13147;SDS011;6639;50.956;4.242;2022-08-19T04:05:43;21.85;;;19.52;;
13147;SDS011;6639;50.956;4.242;2022-08-19T04:08:11;22.80;;;20.48;;
13147;SDS011;6639;50.956;4.242;2022-08-19T04:10:42;24.55;;;22.08;;
13147;SDS011;6639;50.956;4.242;2022-08-19T04:13:10;22.63;;;20.23;;
13147;SDS011;6639;50.956;4.242;2022-08-19T04:15:38;25.38;;;22.23;;
13147;SDS011;6639;50.956;4.242;2022-08-19T04:18:06;25.20;;;22.58;;
13147;SDS011;6639;50.956;4.242;2022-08-19T04:20:38;25.40;;;22.80;;
13147;SDS011;6639;50.956;4.242;2022-08-19T04:23:06;24.27;;;21.73;;
13147;SDS011;6639;50.956;4.242;2022-08-19T04:25:36;27.23;;;22.75;;
13147;SDS011;6639;50.956;4.242;2022-08-19T04:28:04;26.05;;;23.27;;
13147;SDS011;6639;50.956;4.242;2022-08-19T04:30:38;23.48;;;21.00;;
13147;SDS011;6639;50.956;4.242;2022-08-19T04:33:06;26.17;;;21.38;;
13147;SDS011;6639;50.956;4.242;2022-08-19T04:35:37;25.17;;;22.58;;
13147;SDS011;6639;50.956;4.242;2022-08-19T04:38:05;22.80;;;20.40;;
13147;SDS011;6639;50.956;4.242;2022-08-19T04:40:32;24.58;;;22.05;;
13147;SDS011;6639;50.956;4.242;2022-08-19T04:43:17;24.55;;;22.00;;
13147;SDS011;6639;50.956;4.242;2022-08-19T04:45:45;25.38;;;20.30;;
13147;SDS011;6639;50.956;4.242;2022-08-19T04:48:12;25.15;;;19.83;;
13147;SDS011;6639;50.956;4.242;2022-08-19T04:50:40;21.27;;;18.75;;
13147;SDS011;6639;50.956;4.242;2022-08-19T04:53:09;21.65;;;19.35;;
13147;SDS011;6639;50.956;4.242;2022-08-19T04:55:38;22.23;;;20.02;;
13147;SDS011;6639;50.956;4.242;2022-08-19T04:58:06;20.65;;;18.60;;
13147;SDS011;6639;50.956;4.242;2022-08-19T05:00:33;20.63;;;18.05;;
13147;SDS011;6639;50.956;4.242;2022-08-19T05:03:01;20.73;;;18.20;;
13147;SDS011;6639;50.956;4.242;2022-08-19T05:05:28;20.80;;;17.40;;
13147;SDS011;6639;50.956;4.242;2022-08-19T05:07:56;21.63;;;17.80;;
13147;SDS011;6639;50.956;4.242;2022-08-19T05:10:23;19.02;;;16.95;;
13147;SDS011;6639;50.956;4.242;2022-08-19T05:12:50;18.10;;;16.17;;
13147;SDS011;6639;50.956;4.242;2022-08-19T05:15:17;20.33;;;17.58;;
13147;SDS011;6639;50.956;4.242;2022-08-19T05:17:44;18.63;;;16.52;;
13147;SDS011;6639;50.956;4.242;2022-08-19T05:20:32;17.27;;;15.48;;
13147;SDS011;6639;50.956;4.242;2022-08-19T05:23:17;17.55;;;14.90;;
13147;SDS011;6639;50.956;4.242;2022-08-19T05:25:43;17.08;;;15.27;;
13147;SDS011;6639;50.956;4.242;2022-08-19T05:28:10;16.75;;;14.35;;
13147;SDS011;6639;50.956;4.242;2022-08-19T05:30:37;16.23;;;14.57;;
13147;SDS011;6639;50.956;4.242;2022-08-19T05:33:05;21.05;;;15.57;;
13147;SDS011;6639;50.956;4.242;2022-08-19T05:35:37;14.43;;;12.90;;
13147;SDS011;6639;50.956;4.242;2022-08-19T05:38:04;14.80;;;12.80;;
13147;SDS011;6639;50.956;4.242;2022-08-19T05:40:33;15.52;;;14.00;;
13147;SDS011;6639;50.956;4.242;2022-08-19T05:43:01;15.10;;;13.50;;
13147;SDS011;6639;50.956;4.242;2022-08-19T05:45:27;14.95;;;13.43;;
13147;SDS011;6639;50.956;4.242;2022-08-19T05:47:54;14.88;;;13.38;;
13147;SDS011;6639;50.956;4.242;2022-08-19T05:50:21;15.02;;;13.05;;
13147;SDS011;6639;50.956;4.242;2022-08-19T05:52:49;14.90;;;12.63;;
13147;SDS011;6639;50.956;4.242;2022-08-19T05:55:16;15.27;;;12.98;;
13147;SDS011;6639;50.956;4.242;2022-08-19T05:57:45;14.57;;;12.48;;
13147;SDS011;6639;50.956;4.242;2022-08-19T06:00:12;14.25;;;12.80;;
13147;SDS011;6639;50.956;4.242;2022-08-19T06:02:40;14.70;;;12.75;;
13147;SDS011;6639;50.956;4.242;2022-08-19T06:05:07;15.18;;;11.32;;
13147;SDS011;6639;50.956;4.242;2022-08-19T06:07:35;14.25;;;11.82;;
13147;SDS011;6639;50.956;4.242;2022-08-19T06:10:05;16.27;;;11.80;;
13147;SDS011;6639;50.956;4.242;2022-08-19T06:12:35;12.05;;;10.82;;
13147;SDS011;6639;50.956;4.242;2022-08-19T06:15:03;13.35;;;11.95;;
13147;SDS011;6639;50.956;4.242;2022-08-19T06:17:31;13.88;;;11.52;;
13147;SDS011;6639;50.956;4.242;2022-08-19T06:19:59;12.15;;;10.80;;
13147;SDS011;6639;50.956;4.242;2022-08-19T06:22:27;11.57;;;10.25;;
13147;SDS011;6639;50.956;4.242;2022-08-19T06:24:54;13.02;;;10.70;;
13147;SDS011;6639;50.956;4.242;2022-08-19T06:27:23;11.23;;;10.30;;
13147;SDS011;6639;50.956;4.242;2022-08-19T06:29:49;12.25;;;10.63;;
13147;SDS011;6639;50.956;4.242;2022-08-19T06:32:16;13.02;;;10.85;;
13147;SDS011;6639;50.956;4.242;2022-08-19T06:34:44;11.43;;;9.77;;
13147;SDS011;6639;50.956;4.242;2022-08-19T06:37:11;12.95;;;11.68;;
13147;SDS011;6639;50.956;4.242;2022-08-19T06:39:39;12.55;;;11.35;;
13147;SDS011;6639;50.956;4.242;2022-08-19T06:42:08;12.43;;;11.18;;
13147;SDS011;6639;50.956;4.242;2022-08-19T06:44:40;13.85;;;10.65;;
13147;SDS011;6639;50.956;4.242;2022-08-19T06:47:09;12.73;;;11.40;;
13147;SDS011;6639;50.956;4.242;2022-08-19T06:49:37;12.18;;;10.43;;
13147;SDS011;6639;50.956;4.242;2022-08-19T06:52:04;13.10;;;11.80;;
13147;SDS011;6639;50.956;4.242;2022-08-19T06:54:32;13.30;;;10.82;;
13147;SDS011;6639;50.956;4.242;2022-08-19T06:56:59;11.10;;;9.85;;
13147;SDS011;6639;50.956;4.242;2022-08-19T06:59:27;14.20;;;11.02;;
13147;SDS011;6639;50.956;4.242;2022-08-19T07:01:59;13.43;;;10.68;;
13147;SDS011;6639;50.956;4.242;2022-08-19T07:04:31;11.98;;;10.10;;
13147;SDS011;6639;50.956;4.242;2022-08-19T07:06:59;12.32;;;11.02;;
13147;SDS011;6639;50.956;4.242;2022-08-19T07:09:27;12.02;;;10.63;;
13147;SDS011;6639;50.956;4.242;2022-08-19T07:11:55;9.73;;;8.68;;
13147;SDS011;6639;50.956;4.242;2022-08-19T07:14:23;10.98;;;9.90;;
13147;SDS011;6639;50.956;4.242;2022-08-19T07:16:52;11.63;;;9.85;;
13147;SDS011;6639;50.956;4.242;2022-08-19T07:19:22;10.50;;;9.43;;
13147;SDS011;6639;50.956;4.242;2022-08-19T07:21:51;12.45;;;9.70;;
13147;SDS011;6639;50.956;4.242;2022-08-19T07:24:19;10.77;;;8.93;;
13147;SDS011;6639;50.956;4.242;2022-08-19T07:26:49;11.13;;;9.13;;
13147;SDS011;6639;50.956;4.242;2022-08-19T07:29:16;9.20;;;7.47;;
13147;SDS011;6639;50.956;4.242;2022-08-19T07:31:44;10.82;;;9.45;;
13147;SDS011;6639;50.956;4.242;2022-08-19T07:34:11;8.48;;;7.35;;
13147;SDS011;6639;50.956;4.242;2022-08-19T07:36:41;9.38;;;8.32;;
13147;SDS011;6639;50.956;4.242;2022-08-19T07:39:10;12.18;;;7.88;;
13147;SDS011;6639;50.956;4.242;2022-08-19T07:41:38;7.90;;;6.93;;
13147;SDS011;6639;50.956;4.242;2022-08-19T07:44:06;8.13;;;7.05;;
13147;SDS011;6639;50.956;4.242;2022-08-19T07:46:34;8.45;;;6.88;;
13147;SDS011;6639;50.956;4.242;2022-08-19T07:49:05;9.35;;;7.05;;
13147;SDS011;6639;50.956;4.242;2022-08-19T07:51:34;8.88;;;6.38;;
13147;SDS011;6639;50.956;4.242;2022-08-19T07:54:03;8.20;;;6.70;;
13147;SDS011;6639;50.956;4.242;2022-08-19T07:56:30;7.15;;;6.20;;
13147;SDS011;6639;50.956;4.242;2022-08-19T07:58:57;8.77;;;6.53;;
13147;SDS011;6639;50.956;4.242;2022-08-19T08:01:24;10.60;;;8.07;;
13147;SDS011;6639;50.956;4.242;2022-08-19T08:03:54;6.35;;;5.75;;
13147;SDS011;6639;50.956;4.242;2022-08-19T08:06:39;7.53;;;6.68;;
13147;SDS011;6639;50.956;4.242;2022-08-19T08:09:26;7.00;;;6.32;;
13147;SDS011;6639;50.956;4.242;2022-08-19T08:11:57;7.18;;;6.47;;
13147;SDS011;6639;50.956;4.242;2022-08-19T08:14:27;7.78;;;6.40;;
13147;SDS011;6639;50.956;4.242;2022-08-19T08:16:55;9.20;;;7.15;;
13147;SDS011;6639;50.956;4.242;2022-08-19T08:19:23;8.13;;;6.53;;
13147;SDS011;6639;50.956;4.242;2022-08-19T08:21:52;6.60;;;5.90;;
13147;SDS011;6639;50.956;4.242;2022-08-19T08:24:20;7.32;;;6.63;;
13147;SDS011;6639;50.956;4.242;2022-08-19T08:26:48;9.73;;;6.85;;
13147;SDS011;6639;50.956;4.242;2022-08-19T08:29:15;8.55;;;6.20;;
13147;SDS011;6639;50.956;4.242;2022-08-19T08:31:43;7.07;;;6.30;;
13147;SDS011;6639;50.956;4.242;2022-08-19T08:34:10;7.75;;;6.88;;
13147;SDS011;6639;50.956;4.242;2022-08-19T08:36:40;8.70;;;6.05;;
13147;SDS011;6639;50.956;4.242;2022-08-19T08:39:11;9.63;;;6.88;;
13147;SDS011;6639;50.956;4.242;2022-08-19T08:41:40;7.30;;;6.70;;
13147;SDS011;6639;50.956;4.242;2022-08-19T08:44:15;8.02;;;6.00;;
13147;SDS011;6639;50.956;4.242;2022-08-19T08:46:46;6.75;;;6.00;;
13147;SDS011;6639;50.956;4.242;2022-08-19T08:49:20;8.93;;;7.90;;
13147;SDS011;6639;50.956;4.242;2022-08-19T08:51:58;7.47;;;6.75;;
13147;SDS011;6639;50.956;4.242;2022-08-19T08:54:30;7.85;;;6.72;;
13147;SDS011;6639;50.956;4.242;2022-08-19T08:56:59;8.27;;;7.18;;
13147;SDS011;6639;50.956;4.242;2022-08-19T08:59:30;8.98;;;7.65;;
13147;SDS011;6639;50.956;4.242;2022-08-19T09:02:00;9.63;;;7.00;;
13147;SDS011;6639;50.956;4.242;2022-08-19T09:04:27;8.10;;;7.15;;
13147;SDS011;6639;50.956;4.242;2022-08-19T09:06:55;11.30;;;7.85;;
13147;SDS011;6639;50.956;4.242;2022-08-19T09:09:41;8.75;;;7.28;;
13147;SDS011;6639;50.956;4.242;2022-08-19T09:12:13;9.38;;;7.18;;
13147;SDS011;6639;50.956;4.242;2022-08-19T09:14:47;7.95;;;7.15;;
13147;SDS011;6639;50.956;4.242;2022-08-19T09:17:18;9.32;;;6.85;;
13147;SDS011;6639;50.956;4.242;2022-08-19T09:19:48;8.68;;;7.22;;
13147;SDS011;6639;50.956;4.242;2022-08-19T09:22:17;8.60;;;7.25;;
13147;SDS011;6639;50.956;4.242;2022-08-19T09:24:47;7.57;;;6.93;;
13147;SDS011;6639;50.956;4.242;2022-08-19T09:27:14;10.35;;;6.80;;
13147;SDS011;6639;50.956;4.242;2022-08-19T09:29:41;8.13;;;6.63;;
13147;SDS011;6639;50.956;4.242;2022-08-19T09:32:09;8.18;;;6.80;;
13147;SDS011;6639;50.956;4.242;2022-08-19T09:34:37;7.50;;;6.00;;
13147;SDS011;6639;50.956;4.242;2022-08-19T09:37:03;7.45;;;6.63;;
13147;SDS011;6639;50.956;4.242;2022-08-19T09:39:31;7.22;;;6.50;;
13147;SDS011;6639;50.956;4.242;2022-08-19T09:41:58;9.15;;;5.90;;
13147;SDS011;6639;50.956;4.242;2022-08-19T09:44:25;8.80;;;6.22;;
13147;SDS011;6639;50.956;4.242;2022-08-19T09:46:52;7.63;;;6.15;;
13147;SDS011;6639;50.956;4.242;2022-08-19T09:49:20;7.65;;;5.47;;
13147;SDS011;6639;50.956;4.242;2022-08-19T09:51:49;6.53;;;5.80;;
13147;SDS011;6639;50.956;4.242;2022-08-19T09:54:16;5.60;;;5.10;;
13147;SDS011;6639;50.956;4.242;2022-08-19T09:56:43;7.82;;;5.22;;
13147;SDS011;6639;50.956;4.242;2022-08-19T09:59:10;9.45;;;6.47;;
13147;SDS011;6639;50.956;4.242;2022-08-19T10:01:37;7.88;;;6.35;;
13147;SDS011;6639;50.956;4.242;2022-08-19T10:04:04;7.78;;;5.40;;
13147;SDS011;6639;50.956;4.242;2022-08-19T10:06:35;6.85;;;6.13;;
13147;SDS011;6639;50.956;4.242;2022-08-19T10:09:03;7.13;;;5.25;;
13147;SDS011;6639;50.956;4.242;2022-08-19T10:11:31;6.18;;;5.50;;
13147;SDS011;6639;50.956;4.242;2022-08-19T10:13:59;7.63;;;6.25;;
13147;SDS011;6639;50.956;4.242;2022-08-19T10:16:26;7.47;;;6.18;;
13147;SDS011;6639;50.956;4.242;2022-08-19T10:18:53;7.65;;;6.30;;
13147;SDS011;6639;50.956;4.242;2022-08-19T10:21:22;6.15;;;5.43;;
13147;SDS011;6639;50.956;4.242;2022-08-19T10:23:52;6.85;;;6.13;;
13147;SDS011;6639;50.956;4.242;2022-08-19T10:26:22;6.03;;;5.20;;
13147;SDS011;6639;50.956;4.242;2022-08-19T10:28:50;6.90;;;5.68;;
13147;SDS011;6639;50.956;4.242;2022-08-19T10:31:19;6.03;;;5.43;;
13147;SDS011;6639;50.956;4.242;2022-08-19T10:33:48;6.43;;;5.82;;
13147;SDS011;6639;50.956;4.242;2022-08-19T10:36:16;7.88;;;6.57;;
13147;SDS011;6639;50.956;4.242;2022-08-19T10:38:45;6.40;;;5.72;;
13147;SDS011;6639;50.956;4.242;2022-08-19T10:41:18;7.35;;;5.45;;
13147;SDS011;6639;50.956;4.242;2022-08-19T10:43:47;5.35;;;4.85;;
13147;SDS011;6639;50.956;4.242;2022-08-19T10:46:17;5.50;;;5.00;;
13147;SDS011;6639;50.956;4.242;2022-08-19T10:48:44;5.35;;;4.90;;
13147;SDS011;6639;50.956;4.242;2022-08-19T10:51:11;4.75;;;4.30;;
13147;SDS011;6639;50.956;4.242;2022-08-19T10:53:56;4.38;;;4.00;;
13147;SDS011;6639;50.956;4.242;2022-08-19T10:56:25;4.32;;;3.92;;
13147;SDS011;6639;50.956;4.242;2022-08-19T10:59:16;4.70;;;3.80;;
13147;SDS011;6639;50.956;4.242;2022-08-19T11:01:45;6.57;;;3.97;;
13147;SDS011;6639;50.956;4.242;2022-08-19T11:04:13;3.63;;;3.33;;
13147;SDS011;6639;50.956;4.242;2022-08-19T11:06:42;3.13;;;2.80;;
13147;SDS011;6639;50.956;4.242;2022-08-19T11:09:12;6.50;;;3.50;;
13147;SDS011;6639;50.956;4.242;2022-08-19T11:11:41;3.45;;;3.15;;
13147;SDS011;6639;50.956;4.242;2022-08-19T11:14:09;3.65;;;3.33;;
13147;SDS011;6639;50.956;4.242;2022-08-19T11:16:37;3.88;;;3.42;;
13147;SDS011;6639;50.956;4.242;2022-08-19T11:19:05;4.25;;;3.95;;
13147;SDS011;6639;50.956;4.242;2022-08-19T11:21:34;4.45;;;3.72;;
13147;SDS011;6639;50.956;4.242;2022-08-19T11:24:03;3.58;;;3.30;;
13147;SDS011;6639;50.956;4.242;2022-08-19T11:26:33;4.00;;;3.70;;
13147;SDS011;6639;50.956;4.242;2022-08-19T11:29:02;4.07;;;3.47;;
13147;SDS011;6639;50.956;4.242;2022-08-19T11:31:32;6.32;;;4.22;;
13147;SDS011;6639;50.956;4.242;2022-08-19T11:34:02;4.47;;;3.70;;
13147;SDS011;6639;50.956;4.242;2022-08-19T11:36:31;4.68;;;3.72;;
13147;SDS011;6639;50.956;4.242;2022-08-19T11:38:58;4.80;;;4.30;;
13147;SDS011;6639;50.956;4.242;2022-08-19T11:41:26;4.13;;;3.72;;
13147;SDS011;6639;50.956;4.242;2022-08-19T11:43:53;4.00;;;3.70;;
13147;SDS011;6639;50.956;4.242;2022-08-19T11:46:22;4.47;;;4.07;;
13147;SDS011;6639;50.956;4.242;2022-08-19T11:48:50;4.38;;;3.97;;
13147;SDS011;6639;50.956;4.242;2022-08-19T11:51:19;4.55;;;4.13;;
13147;SDS011;6639;50.956;4.242;2022-08-19T11:53:49;4.93;;;4.53;;
13147;SDS011;6639;50.956;4.242;2022-08-19T11:56:17;5.25;;;4.75;;
13147;SDS011;6639;50.956;4.242;2022-08-19T11:58:44;5.28;;;4.78;;
13147;SDS011;6639;50.956;4.242;2022-08-19T12:01:12;5.80;;;5.38;;
13147;SDS011;6639;50.956;4.242;2022-08-19T12:03:42;4.97;;;4.57;;
13147;SDS011;6639;50.956;4.242;2022-08-19T12:06:11;6.85;;;6.28;;
13147;SDS011;6639;50.956;4.242;2022-08-19T12:08:40;6.07;;;5.53;;
13147;SDS011;6639;50.956;4.242;2022-08-19T12:11:07;6.57;;;6.18;;
13147;SDS011;6639;50.956;4.242;2022-08-19T12:13:35;7.15;;;6.65;;
13147;SDS011;6639;50.956;4.242;2022-08-19T12:16:06;7.05;;;6.53;;
13147;SDS011;6639;50.956;4.242;2022-08-19T12:18:35;6.13;;;5.68;;
13147;SDS011;6639;50.956;4.242;2022-08-19T12:21:04;6.55;;;6.05;;
13147;SDS011;6639;50.956;4.242;2022-08-19T12:23:31;7.18;;;6.57;;
13147;SDS011;6639;50.956;4.242;2022-08-19T12:25:58;6.35;;;5.85;;
13147;SDS011;6639;50.956;4.242;2022-08-19T12:28:25;5.53;;;5.22;;
13147;SDS011;6639;50.956;4.242;2022-08-19T12:30:52;5.82;;;5.10;;
13147;SDS011;6639;50.956;4.242;2022-08-19T12:33:19;5.15;;;4.70;;
13147;SDS011;6639;50.956;4.242;2022-08-19T12:35:49;4.63;;;4.25;;
13147;SDS011;6639;50.956;4.242;2022-08-19T12:38:18;4.63;;;4.32;;
13147;SDS011;6639;50.956;4.242;2022-08-19T12:40:46;4.78;;;4.20;;
13147;SDS011;6639;50.956;4.242;2022-08-19T12:43:17;4.70;;;3.95;;
13147;SDS011;6639;50.956;4.242;2022-08-19T12:45:44;4.45;;;3.95;;
13147;SDS011;6639;50.956;4.242;2022-08-19T12:48:11;3.78;;;3.47;;
13147;SDS011;6639;50.956;4.242;2022-08-19T12:50:39;3.00;;;2.80;;
13147;SDS011;6639;50.956;4.242;2022-08-19T12:53:06;3.72;;;3.33;;
13147;SDS011;6639;50.956;4.242;2022-08-19T12:55:35;3.28;;;2.88;;
13147;SDS011;6639;50.956;4.242;2022-08-19T12:58:01;3.90;;;3.60;;
13147;SDS011;6639;50.956;4.242;2022-08-19T13:00:28;3.58;;;3.25;;
13147;SDS011;6639;50.956;4.242;2022-08-19T13:02:57;3.20;;;2.92;;
13147;SDS011;6639;50.956;4.242;2022-08-19T13:05:27;5.05;;;3.20;;
13147;SDS011;6639;50.956;4.242;2022-08-19T13:07:57;3.28;;;2.92;;
13147;SDS011;6639;50.956;4.242;2022-08-19T13:10:25;3.67;;;3.25;;
13147;SDS011;6639;50.956;4.242;2022-08-19T13:12:55;4.10;;;2.90;;
13147;SDS011;6639;50.956;4.242;2022-08-19T13:15:24;2.42;;;2.33;;
13147;SDS011;6639;50.956;4.242;2022-08-19T13:17:53;2.90;;;2.70;;
13147;SDS011;6639;50.956;4.242;2022-08-19T13:20:21;2.95;;;2.75;;
13147;SDS011;6639;50.956;4.242;2022-08-19T13:22:48;3.63;;;3.05;;
13147;SDS011;6639;50.956;4.242;2022-08-19T13:25:15;2.53;;;2.40;;
13147;SDS011;6639;50.956;4.242;2022-08-19T13:27:45;2.97;;;2.60;;
13147;SDS011;6639;50.956;4.242;2022-08-19T13:30:14;3.28;;;2.53;;
13147;SDS011;6639;50.956;4.242;2022-08-19T13:33:00;2.20;;;2.08;;
13147;SDS011;6639;50.956;4.242;2022-08-19T13:35:44;3.28;;;2.72;;
13147;SDS011;6639;50.956;4.242;2022-08-19T13:38:15;2.72;;;2.63;;
13147;SDS011;6639;50.956;4.242;2022-08-19T13:40:43;3.90;;;2.80;;
13147;SDS011;6639;50.956;4.242;2022-08-19T13:43:11;3.85;;;3.30;;
13147;SDS011;6639;50.956;4.242;2022-08-19T13:45:40;2.95;;;2.75;;
13147;SDS011;6639;50.956;4.242;2022-08-19T13:48:07;3.08;;;2.88;;
13147;SDS011;6639;50.956;4.242;2022-08-19T13:50:35;2.30;;;2.20;;
13147;SDS011;6639;50.956;4.242;2022-08-19T13:53:05;2.65;;;1.55;;
13147;SDS011;6639;50.956;4.242;2022-08-19T13:55:33;1.33;;;1.05;;
13147;SDS011;6639;50.956;4.242;2022-08-19T13:58:01;1.65;;;1.55;;
13147;SDS011;6639;50.956;4.242;2022-08-19T14:00:31;1.40;;;1.30;;
13147;SDS011;6639;50.956;4.242;2022-08-19T14:03:02;1.35;;;1.27;;
13147;SDS011;6639;50.956;4.242;2022-08-19T14:05:29;1.40;;;1.27;;
13147;SDS011;6639;50.956;4.242;2022-08-19T14:07:57;1.52;;;1.40;;
13147;SDS011;6639;50.956;4.242;2022-08-19T14:10:25;2.63;;;2.05;;
13147;SDS011;6639;50.956;4.242;2022-08-19T14:12:56;2.72;;;2.53;;
13147;SDS011;6639;50.956;4.242;2022-08-19T14:15:25;2.78;;;2.63;;
13147;SDS011;6639;50.956;4.242;2022-08-19T14:17:52;5.38;;;3.05;;
13147;SDS011;6639;50.956;4.242;2022-08-19T14:20:21;3.35;;;3.15;;
13147;SDS011;6639;50.956;4.242;2022-08-19T14:22:48;4.38;;;3.15;;
13147;SDS011;6639;50.956;4.242;2022-08-19T14:25:16;5.22;;;3.45;;
13147;SDS011;6639;50.956;4.242;2022-08-19T14:27:45;4.95;;;3.13;;
13147;SDS011;6639;50.956;4.242;2022-08-19T14:30:13;3.08;;;2.88;;
13147;SDS011;6639;50.956;4.242;2022-08-19T14:32:42;2.45;;;2.10;;
13147;SDS011;6639;50.956;4.242;2022-08-19T14:35:09;2.67;;;2.05;;
13147;SDS011;6639;50.956;4.242;2022-08-19T14:37:40;2.38;;;2.17;;
13147;SDS011;6639;50.956;4.242;2022-08-19T14:40:08;2.42;;;1.63;;
13147;SDS011;6639;50.956;4.242;2022-08-19T14:42:36;1.10;;;1.10;;
13147;SDS011;6639;50.956;4.242;2022-08-19T14:45:04;2.15;;;1.58;;
13147;SDS011;6639;50.956;4.242;2022-08-19T14:47:31;1.27;;;1.15;;
13147;SDS011;6639;50.956;4.242;2022-08-19T14:49:58;1.20;;;1.15;;
13147;SDS011;6639;50.956;4.242;2022-08-19T14:52:25;2.45;;;1.60;;
13147;SDS011;6639;50.956;4.242;2022-08-19T14:54:54;2.33;;;1.20;;
13147;SDS011;6639;50.956;4.242;2022-08-19T14:57:21;0.75;;;0.75;;